createdAt,value
2022-09-27T00:00:32.007Z,95479.25
2022-09-27T00:03:00.201Z,95482.59
2022-09-27T00:05:28.188Z,95482.97
2022-09-27T00:07:56.155Z,95479.25
2022-09-27T00:10:24.229Z,95471.78
2022-09-27T00:12:54.117Z,95471.97
2022-09-27T00:15:22.070Z,95460.63
2022-09-27T00:17:51.914Z,95459.16
2022-09-27T00:20:21.063Z,95455.31
2022-09-27T00:22:49.931Z,95457.59
2022-09-27T00:25:18.498Z,95452.97
2022-09-27T00:27:46.606Z,95450.63
2022-09-27T00:30:16.401Z,95445.69
2022-09-27T00:32:44.371Z,95435.13
2022-09-27T00:35:12.793Z,95432.91
2022-09-27T00:37:40.802Z,95432.63
2022-09-27T00:40:09.622Z,95425.75
2022-09-27T00:42:37.707Z,95422.63
2022-09-27T00:45:14.110Z,95424.00
2022-09-27T00:47:48.789Z,95422.03
2022-09-27T00:50:24.249Z,95420.78
2022-09-27T00:53:01.242Z,95419.03
2022-09-27T00:55:32.133Z,95415.75
2022-09-27T00:58:00.125Z,95424.38
2022-09-27T01:00:28.257Z,95420.59
2022-09-27T01:02:58.278Z,95417.28
2022-09-27T01:05:28.761Z,95411.78
2022-09-27T01:08:00.586Z,95405.03
2022-09-27T01:10:31.510Z,95408.59
2022-09-27T01:13:05.692Z,95402.94
2022-09-27T01:15:39.239Z,95404.50
2022-09-27T01:18:18.937Z,95394.97
2022-09-27T01:21:19.320Z,95393.06
2022-09-27T01:23:58.091Z,95402.94
2022-09-27T01:26:36.923Z,95392.88
2022-09-27T01:29:10.821Z,95389.75
2022-09-27T01:31:43.261Z,95397.66
2022-09-27T01:34:19.158Z,95389.78
2022-09-27T01:36:54.093Z,95377.03
2022-09-27T01:39:31.498Z,95393.00
2022-09-27T01:42:22.843Z,95383.13
2022-09-27T01:45:00.010Z,95385.16
2022-09-27T01:47:39.415Z,95380.91
2022-09-27T01:50:40.448Z,95369.00
2022-09-27T01:53:11.819Z,95364.50
2022-09-27T01:55:56.809Z,95360.59
2022-09-27T01:58:51.684Z,95352.41
2022-09-27T02:01:21.794Z,95351.09
2022-09-27T02:03:53.389Z,95347.28
2022-09-27T02:06:52.964Z,95343.47
2022-09-27T02:09:29.870Z,95344.16
2022-09-27T02:12:21.882Z,95338.00
2022-09-27T02:14:54.853Z,95348.66
2022-09-27T02:17:29.933Z,95346.31
2022-09-27T02:20:04.997Z,95347.75
2022-09-27T02:22:43.928Z,95348.44
2022-09-27T02:25:15.846Z,95353.38
2022-09-27T02:27:52.452Z,95356.31
2022-09-27T02:30:21.744Z,95347.16
2022-09-27T02:32:56.031Z,95344.59
2022-09-27T02:35:29.644Z,95352.81
2022-09-27T02:37:57.720Z,95354.16
2022-09-27T02:40:27.168Z,95361.59
2022-09-27T02:42:55.155Z,95349.72
2022-09-27T02:45:24.300Z,95347.91
2022-09-27T02:48:03.681Z,95352.59
2022-09-27T02:50:55.256Z,95343.19
2022-09-27T02:53:56.071Z,95332.56
2022-09-27T02:56:50.648Z,95327.72
2022-09-27T02:59:45.537Z,95323.69
2022-09-27T03:02:35.575Z,95315.16
2022-09-27T03:05:25.517Z,95314.03
2022-09-27T03:07:54.824Z,95314.28
2022-09-27T03:10:25.025Z,95313.16
2022-09-27T03:12:53.463Z,95318.09
2022-09-27T03:15:21.831Z,95312.72
2022-09-27T03:18:01.932Z,95315.66
2022-09-27T03:20:58.650Z,95314.94
2022-09-27T03:23:28.416Z,95311.38
2022-09-27T03:25:56.549Z,95306.59
2022-09-27T03:28:25.147Z,95307.81
2022-09-27T03:30:53.645Z,95298.31
2022-09-27T03:33:41.981Z,95307.59
2022-09-27T03:36:12.585Z,95300.66
2022-09-27T03:38:42.135Z,95298.31
2022-09-27T03:41:13.211Z,95296.44
2022-09-27T03:43:41.371Z,95298.13
2022-09-27T03:46:09.414Z,95295.19
2022-09-27T03:48:37.478Z,95283.53
2022-09-27T03:51:05.612Z,95282.56
2022-09-27T03:53:33.586Z,95284.16
2022-09-27T03:56:03.367Z,95281.91
2022-09-27T03:58:32.228Z,95281.88
2022-09-27T04:01:00.460Z,95277.44
2022-09-27T04:03:29.023Z,95266.31
2022-09-27T04:06:16.036Z,95256.09
2022-09-27T04:08:45.993Z,95264.59
2022-09-27T04:11:15.532Z,95272.00
2022-09-27T04:13:47.437Z,95264.50
2022-09-27T04:16:16.196Z,95265.72
2022-09-27T04:19:09.525Z,95261.28
2022-09-27T04:21:49.804Z,95255.44
2022-09-27T04:24:19.345Z,95253.66
2022-09-27T04:27:11.174Z,95260.81
2022-09-27T04:29:43.192Z,95258.19
2022-09-27T04:32:27.140Z,95260.69
2022-09-27T04:35:33.445Z,95252.19
2022-09-27T04:38:01.784Z,95258.59
2022-09-27T04:40:30.248Z,95252.53
2022-09-27T04:42:59.858Z,95255.75
2022-09-27T04:45:27.823Z,95260.09
2022-09-27T04:47:56.047Z,95255.78
2022-09-27T04:50:24.187Z,95261.16
2022-09-27T04:53:03.209Z,95267.31
2022-09-27T04:55:31.246Z,95266.66
2022-09-27T04:58:01.714Z,95268.31
2022-09-27T05:00:30.388Z,95273.38
2022-09-27T05:03:05.359Z,95268.41
2022-09-27T05:05:43.311Z,95271.44
2022-09-27T05:08:11.805Z,95277.81
2022-09-27T05:11:02.855Z,95272.44
2022-09-27T05:13:32.243Z,95278.94
2022-09-27T05:16:04.092Z,95279.88
2022-09-27T05:18:50.618Z,95269.47
2022-09-27T05:21:37.144Z,95285.59
2022-09-27T05:24:05.781Z,95290.19
2022-09-27T05:26:33.782Z,95285.69
2022-09-27T05:29:03.315Z,95288.59
2022-09-27T05:31:31.336Z,95284.91
2022-09-27T05:33:59.433Z,95279.97
2022-09-27T05:36:37.627Z,95289.53
2022-09-27T05:39:07.057Z,95288.94
2022-09-27T05:41:35.576Z,95298.47
2022-09-27T05:44:05.968Z,95284.72
2022-09-27T05:46:34.970Z,95286.25
2022-09-27T05:49:02.989Z,95295.78
2022-09-27T05:51:30.959Z,95308.53
2022-09-27T05:53:59.290Z,95307.44
2022-09-27T05:56:29.752Z,95315.16
2022-09-27T05:59:11.302Z,95316.81
2022-09-27T06:01:59.441Z,95318.31
2022-09-27T06:04:46.343Z,95307.44
2022-09-27T06:07:33.133Z,95316.41
2022-09-27T06:10:03.119Z,95324.88
2022-09-27T06:12:31.994Z,95325.69
2022-09-27T06:15:02.722Z,95330.28
2022-09-27T06:17:37.658Z,95331.75
2022-09-27T06:20:13.665Z,95337.66
2022-09-27T06:22:42.139Z,95349.53
2022-09-27T06:25:11.124Z,95343.59
2022-09-27T06:27:50.905Z,95365.88
2022-09-27T06:30:27.159Z,95373.00
2022-09-27T06:32:59.344Z,95371.47
2022-09-27T06:35:47.513Z,95379.53
2022-09-27T06:38:17.893Z,95384.78
2022-09-27T06:40:53.130Z,95384.22
2022-09-27T06:43:33.055Z,95378.59
2022-09-27T06:46:07.993Z,95382.75
2022-09-27T06:48:57.671Z,95377.47
2022-09-27T06:51:26.064Z,95366.97
2022-09-27T06:53:54.772Z,95368.53
2022-09-27T06:56:22.776Z,95369.44
2022-09-27T06:59:12.845Z,95384.91
2022-09-27T07:01:45.402Z,95395.19
2022-09-27T07:04:34.971Z,95398.66
2022-09-27T07:07:11.913Z,95400.09
2022-09-27T07:09:42.631Z,95404.34
2022-09-27T07:12:13.429Z,95406.81
2022-09-27T07:14:42.467Z,95413.19
2022-09-27T07:17:15.872Z,95416.66
2022-09-27T07:19:46.313Z,95414.22
2022-09-27T07:22:14.741Z,95416.22
2022-09-27T07:24:45.625Z,95424.50
2022-09-27T07:27:15.137Z,95421.94
2022-09-27T07:29:43.204Z,95428.78
2022-09-27T07:32:11.137Z,95428.31
2022-09-27T07:34:41.291Z,95434.16
2022-09-27T07:37:09.635Z,95433.59
2022-09-27T07:39:40.899Z,95432.50
2022-09-27T07:42:08.868Z,95431.16
2022-09-27T07:44:42.226Z,95436.84
2022-09-27T07:47:24.641Z,95426.88
2022-09-27T07:50:23.081Z,95435.72
2022-09-27T07:52:59.959Z,95429.31
2022-09-27T07:55:54.548Z,95426.72
2022-09-27T07:58:25.695Z,95417.97
2022-09-27T08:00:57.138Z,95419.09
2022-09-27T08:03:25.343Z,95420.22
2022-09-27T08:05:55.709Z,95421.31
2022-09-27T08:08:24.249Z,95426.25
2022-09-27T08:10:53.921Z,95422.88
2022-09-27T08:13:21.970Z,95436.56
2022-09-27T08:15:53.292Z,95432.53
2022-09-27T08:18:24.727Z,95435.34
2022-09-27T08:21:02.241Z,95436.13
2022-09-27T08:23:43.008Z,95449.56
2022-09-27T08:26:34.462Z,95445.22
2022-09-27T08:29:14.706Z,95453.38
2022-09-27T08:31:51.787Z,95449.34
2022-09-27T08:34:20.494Z,95441.50
2022-09-27T08:36:49.892Z,95455.41
2022-09-27T08:39:17.949Z,95455.84
2022-09-27T08:41:53.903Z,95464.03
2022-09-27T08:44:29.343Z,95467.59
2022-09-27T08:47:08.179Z,95477.00
2022-09-27T08:49:40.076Z,95476.47
2022-09-27T08:52:15.313Z,95482.28
2022-09-27T08:54:44.076Z,95483.06
2022-09-27T08:57:13.298Z,95486.22
2022-09-27T08:59:44.288Z,95488.44
2022-09-27T09:02:19.047Z,95491.72
2022-09-27T09:04:51.948Z,95490.16
2022-09-27T09:07:39.722Z,95488.44
2022-09-27T09:10:41.413Z,95486.31
2022-09-27T09:13:14.594Z,95487.91
2022-09-27T09:15:56.288Z,95495.06
2022-09-27T09:18:35.977Z,95503.13
2022-09-27T09:21:24.288Z,95503.38
2022-09-27T09:24:14.641Z,95498.09
2022-09-27T09:26:46.840Z,95491.69
2022-09-27T09:29:25.650Z,95499.75
2022-09-27T09:31:59.611Z,95490.56
2022-09-27T09:34:30.563Z,95502.22
2022-09-27T09:37:00.624Z,95492.53
2022-09-27T09:39:35.104Z,95497.13
2022-09-27T09:42:11.705Z,95494.59
2022-09-27T09:44:47.408Z,95489.66
2022-09-27T09:47:21.363Z,95493.72
2022-09-27T09:49:53.632Z,95490.25
2022-09-27T09:52:23.814Z,95476.66
2022-09-27T09:54:57.425Z,95481.22
2022-09-27T09:57:30.229Z,95490.09
2022-09-27T10:00:00.806Z,95480.66
2022-09-27T10:02:32.737Z,95494.19
2022-09-27T10:05:31.500Z,95494.19
2022-09-27T10:08:05.748Z,95493.63
2022-09-27T10:10:35.385Z,95493.41
2022-09-27T10:13:26.214Z,95497.91
2022-09-27T10:16:03.398Z,95498.13
2022-09-27T10:18:33.501Z,95503.59
2022-09-27T10:21:04.131Z,95504.50
2022-09-27T10:23:32.139Z,95512.91
2022-09-27T10:26:21.586Z,95519.88
2022-09-27T10:28:52.177Z,95512.22
2022-09-27T10:31:36.472Z,95513.00
2022-09-27T10:34:20.243Z,95519.13
2022-09-27T10:37:05.229Z,95526.50
2022-09-27T10:39:35.512Z,95526.41
2022-09-27T10:42:21.281Z,95515.84
2022-09-27T10:44:50.257Z,95519.88
2022-09-27T10:47:27.487Z,95525.56
2022-09-27T10:50:38.605Z,95528.59
2022-09-27T10:53:18.874Z,95532.19
2022-09-27T10:55:53.915Z,95526.09
2022-09-27T10:58:28.792Z,95536.84
2022-09-27T11:00:58.506Z,95534.38
2022-09-27T11:03:29.076Z,95538.66
2022-09-27T11:05:59.423Z,95542.00
2022-09-27T11:08:32.525Z,95536.38
2022-09-27T11:11:13.768Z,95545.75
2022-09-27T11:13:59.028Z,95526.94
2022-09-27T11:16:46.235Z,95539.03
2022-09-27T11:19:33.083Z,95534.59
2022-09-27T11:22:04.063Z,95534.59
2022-09-27T11:24:43.304Z,95527.81
2022-09-27T11:27:22.302Z,95532.31
2022-09-27T11:30:03.722Z,95530.66
2022-09-27T11:33:18.879Z,95532.41
2022-09-27T11:35:57.169Z,95529.28
2022-09-27T11:38:51.210Z,95532.53
2022-09-27T11:41:28.873Z,95526.84
2022-09-27T11:44:09.167Z,95523.44
2022-09-27T11:46:42.099Z,95515.69
2022-09-27T11:49:32.405Z,95517.94
2022-09-27T11:52:25.448Z,95528.25
2022-09-27T11:55:10.723Z,95516.06
2022-09-27T11:57:43.684Z,95515.03
2022-09-27T12:00:17.822Z,95510.41
2022-09-27T12:03:10.574Z,95503.47
2022-09-27T12:05:57.826Z,95512.59
2022-09-27T12:08:34.748Z,95500.00
2022-09-27T12:11:06.525Z,95495.97
2022-09-27T12:13:39.063Z,95502.44
2022-09-27T12:16:07.740Z,95501.84
2022-09-27T12:18:40.467Z,95509.94
2022-09-27T12:21:23.108Z,95507.56
2022-09-27T12:23:53.176Z,95513.81
2022-09-27T12:26:37.700Z,95532.94
2022-09-27T12:29:13.970Z,95548.94
2022-09-27T12:31:45.626Z,95574.50
2022-09-27T12:34:20.129Z,95583.13
2022-09-27T12:36:52.860Z,95580.47
2022-09-27T12:39:25.261Z,95577.47
2022-09-27T12:42:03.135Z,95571.06
2022-09-27T12:44:44.941Z,95569.69
2022-09-27T12:47:35.644Z,95561.16
2022-09-27T12:50:11.355Z,95554.34
2022-09-27T12:52:43.025Z,95557.63
2022-09-27T12:55:35.386Z,95554.38
2022-09-27T12:58:37.672Z,95544.41
2022-09-27T13:01:13.738Z,95555.81
2022-09-27T13:04:03.496Z,95547.19
2022-09-27T13:06:47.326Z,95551.75
2022-09-27T13:09:46.304Z,95552.56
2022-09-27T13:12:16.258Z,95554.25
2022-09-27T13:14:58.656Z,95556.72
2022-09-27T13:17:53.250Z,95554.00
2022-09-27T13:20:48.247Z,95556.47
2022-09-27T13:24:02.113Z,95551.03
2022-09-27T13:27:42.871Z,95554.34
2022-09-27T13:30:50.205Z,95542.41
2022-09-27T13:33:43.231Z,95540.53
2022-09-27T13:36:37.749Z,95543.28
2022-09-27T13:39:23.065Z,95543.88
2022-09-27T13:42:30.118Z,95536.88
2022-09-27T13:45:16.015Z,95523.41
2022-09-27T13:47:47.437Z,95524.03
2022-09-27T13:50:26.643Z,95512.41
2022-09-27T13:53:08.376Z,95530.47
2022-09-27T13:55:46.797Z,95519.19
2022-09-27T13:58:35.246Z,95521.41
2022-09-27T14:01:13.278Z,95520.09
2022-09-27T14:03:43.945Z,95523.84
2022-09-27T14:06:15.306Z,95517.78
2022-09-27T14:08:47.354Z,95523.19
2022-09-27T14:11:19.173Z,95519.19
2022-09-27T14:13:48.554Z,95521.09
2022-09-27T14:16:20.850Z,95515.22
2022-09-27T14:18:53.892Z,95519.38
2022-09-27T14:21:32.288Z,95517.88
2022-09-27T14:24:29.621Z,95521.34
2022-09-27T14:27:10.548Z,95513.97
2022-09-27T14:29:42.206Z,95517.34
2022-09-27T14:32:13.174Z,95519.72
2022-09-27T14:35:31.715Z,95520.91
2022-09-27T14:38:07.480Z,95527.63
2022-09-27T14:40:45.774Z,95524.84
2022-09-27T14:43:18.301Z,95520.38
2022-09-27T14:45:48.801Z,95519.19
2022-09-27T14:48:22.291Z,95521.03
2022-09-27T14:51:04.950Z,95524.84
2022-09-27T14:53:35.588Z,95520.22
2022-09-27T14:56:08.062Z,95501.44
2022-09-27T14:58:47.276Z,95501.25
2022-09-27T15:01:16.870Z,95503.41
2022-09-27T15:03:46.471Z,95511.66
2022-09-27T15:06:17.342Z,95509.19
2022-09-27T15:08:49.287Z,95504.75
2022-09-27T15:11:17.981Z,95492.16
2022-09-27T15:13:50.637Z,95487.16
2022-09-27T15:16:20.210Z,95497.28
2022-09-27T15:18:49.533Z,95505.69
2022-09-27T15:21:29.712Z,95510.53
2022-09-27T15:23:58.837Z,95514.81
2022-09-27T15:26:29.961Z,95534.06
2022-09-27T15:28:59.343Z,95534.44
2022-09-27T15:31:30.477Z,95533.97
2022-09-27T15:33:59.303Z,95530.50
2022-09-27T15:36:53.071Z,95519.50
2022-09-27T15:39:22.390Z,95518.38
2022-09-27T15:42:08.890Z,95529.84
2022-09-27T15:44:45.261Z,95516.94
2022-09-27T15:47:48.746Z,95525.44
2022-09-27T15:50:36.154Z,95534.28
2022-09-27T15:53:06.674Z,95530.50
2022-09-27T15:55:37.731Z,95547.72
2022-09-27T15:58:08.299Z,95542.56
2022-09-27T16:00:37.755Z,95550.94
2022-09-27T16:03:05.736Z,95558.44
2022-09-27T16:05:33.786Z,95569.63
2022-09-27T16:08:02.262Z,95582.97
2022-09-27T16:10:33.325Z,95589.22
2022-09-27T16:13:01.268Z,95582.50
2022-09-27T16:15:29.246Z,95576.88
2022-09-27T16:17:58.791Z,95589.72
2022-09-27T16:20:28.166Z,95595.34
2022-09-27T16:22:56.671Z,95604.09
2022-09-27T16:25:24.849Z,95603.88
2022-09-27T16:27:53.696Z,95606.09
2022-09-27T16:30:21.669Z,95611.31
2022-09-27T16:32:50.133Z,95605.25
2022-09-27T16:35:20.984Z,95593.94
2022-09-27T16:37:48.968Z,95602.69
2022-09-27T16:40:17.998Z,95599.56
2022-09-27T16:42:46.575Z,95596.94
2022-09-27T16:45:19.150Z,95603.31
2022-09-27T16:47:48.770Z,95594.59
2022-09-27T16:50:34.516Z,95593.59
2022-09-27T16:53:05.251Z,95598.31
2022-09-27T16:55:33.241Z,95594.06
2022-09-27T16:58:03.739Z,95593.81
2022-09-27T17:00:33.279Z,95600.97
2022-09-27T17:03:01.442Z,95595.47
2022-09-27T17:05:29.561Z,95590.78
2022-09-27T17:07:57.903Z,95594.09
2022-09-27T17:10:27.444Z,95601.28
2022-09-27T17:12:57.186Z,95600.09
2022-09-27T17:15:25.192Z,95602.03
2022-09-27T17:17:53.271Z,95600.13
2022-09-27T17:20:21.211Z,95592.53
2022-09-27T17:22:49.257Z,95598.75
2022-09-27T17:25:17.412Z,95576.75
2022-09-27T17:27:46.759Z,95565.00
2022-09-27T17:30:14.824Z,95563.41
2022-09-27T17:32:42.774Z,95554.78
2022-09-27T17:35:10.860Z,95555.09
2022-09-27T17:37:38.871Z,95565.09
2022-09-27T17:40:07.644Z,95572.81
2022-09-27T17:42:37.267Z,95576.00
2022-09-27T17:45:07.693Z,95582.50
2022-09-27T17:47:53.354Z,95580.25
2022-09-27T17:50:28.743Z,95590.81
2022-09-27T17:52:58.855Z,95592.78
2022-09-27T17:55:27.603Z,95582.69
2022-09-27T17:57:55.626Z,95595.16
2022-09-27T18:00:25.011Z,95590.69
2022-09-27T18:02:53.068Z,95597.38
2022-09-27T18:05:21.748Z,95595.00
2022-09-27T18:07:50.204Z,95598.69
2022-09-27T18:10:18.712Z,95595.47
2022-09-27T18:12:46.692Z,95591.56
2022-09-27T18:15:20.301Z,95594.84
2022-09-27T18:17:57.787Z,95596.25
2022-09-27T18:20:26.221Z,95597.69
2022-09-27T18:22:54.591Z,95602.41
2022-09-27T18:25:25.142Z,95609.34
2022-09-27T18:27:55.889Z,95603.84
2022-09-27T18:30:24.093Z,95611.72
2022-09-27T18:32:53.795Z,95609.03
2022-09-27T18:35:23.855Z,95605.41
2022-09-27T18:37:51.900Z,95605.41
2022-09-27T18:40:38.019Z,95615.50
2022-09-27T18:43:08.326Z,95612.94
2022-09-27T18:45:37.133Z,95619.16
2022-09-27T18:48:06.872Z,95628.50
2022-09-27T18:50:38.569Z,95631.34
2022-09-27T18:53:08.328Z,95633.56
2022-09-27T18:55:38.380Z,95635.28
2022-09-27T18:58:06.410Z,95652.13
2022-09-27T19:00:34.509Z,95648.22
2022-09-27T19:03:02.468Z,95654.69
2022-09-27T19:05:31.871Z,95653.72
2022-09-27T19:08:00.024Z,95657.19
2022-09-27T19:10:28.077Z,95658.44
2022-09-27T19:12:57.187Z,95659.84
2022-09-27T19:15:25.596Z,95659.69
2022-09-27T19:17:53.623Z,95663.47
2022-09-27T19:20:21.647Z,95656.53
2022-09-27T19:22:51.080Z,95652.44
2022-09-27T19:25:19.028Z,95653.66
2022-09-27T19:27:47.055Z,95656.84
2022-09-27T19:30:15.368Z,95657.44
2022-09-27T19:32:43.414Z,95662.53
2022-09-27T19:35:12.429Z,95655.13
2022-09-27T19:37:40.441Z,95651.50
2022-09-27T19:40:10.398Z,95658.28
2022-09-27T19:42:38.525Z,95656.88
2022-09-27T19:45:11.443Z,95651.19
2022-09-27T19:47:39.916Z,95654.63
2022-09-27T19:50:09.067Z,95658.59
2022-09-27T19:52:37.292Z,95655.91
2022-09-27T19:55:06.708Z,95654.63
2022-09-27T19:57:36.102Z,95663.16
2022-09-27T20:00:04.998Z,95666.81
2022-09-27T20:02:33.547Z,95659.38
2022-09-27T20:05:01.873Z,95658.72
2022-09-27T20:07:30.678Z,95667.25
2022-09-27T20:09:58.636Z,95668.16
2022-09-27T20:12:27.724Z,95666.75
2022-09-27T20:14:57.016Z,95669.56
2022-09-27T20:17:24.982Z,95669.13
2022-09-27T20:19:52.906Z,95666.25
2022-09-27T20:22:20.862Z,95667.00
2022-09-27T20:24:48.799Z,95657.53
2022-09-27T20:27:16.808Z,95661.19
2022-09-27T20:29:44.858Z,95656.75
2022-09-27T20:32:27.242Z,95648.53
2022-09-27T20:34:55.984Z,95647.91
2022-09-27T20:37:23.953Z,95650.28
2022-09-27T20:39:53.556Z,95648.22
2022-09-27T20:42:21.563Z,95645.84
2022-09-27T20:44:53.925Z,95645.38
2022-09-27T20:47:23.825Z,95647.72
2022-09-27T20:49:51.799Z,95647.91
2022-09-27T20:52:19.739Z,95649.28
2022-09-27T20:54:47.781Z,95648.16
2022-09-27T20:57:15.963Z,95642.78
2022-09-27T20:59:43.947Z,95644.66
2022-09-27T21:02:12.021Z,95642.09
2022-09-27T21:04:41.419Z,95647.81
2022-09-27T21:07:09.381Z,95648.31
2022-09-27T21:09:38.675Z,95653.69
2022-09-27T21:12:06.679Z,95652.91
2022-09-27T21:14:34.696Z,95655.47
2022-09-27T21:17:02.642Z,95649.59
2022-09-27T21:19:30.717Z,95654.81
2022-09-27T21:22:00.117Z,95661.63
2022-09-27T21:24:28.162Z,95674.78
2022-09-27T21:26:57.688Z,95674.66
2022-09-27T21:29:25.668Z,95697.25
2022-09-27T21:31:53.770Z,95681.34
2022-09-27T21:34:21.841Z,95676.47
2022-09-27T21:36:50.145Z,95671.44
2022-09-27T21:39:19.614Z,95657.25
2022-09-27T21:41:47.572Z,95659.47
2022-09-27T21:44:15.772Z,95654.13
2022-09-27T21:46:43.894Z,95659.47
2022-09-27T21:49:11.971Z,95658.06
2022-09-27T21:51:41.187Z,95663.88
2022-09-27T21:54:11.149Z,95663.72
2022-09-27T21:56:41.127Z,95656.31
2022-09-27T21:59:12.043Z,95666.41
2022-09-27T22:01:40.123Z,95664.66
2022-09-27T22:04:08.252Z,95666.06
2022-09-27T22:06:37.775Z,95672.53
2022-09-27T22:09:07.995Z,95669.88
2022-09-27T22:11:38.588Z,95664.03
2022-09-27T22:14:07.957Z,95660.09
2022-09-27T22:16:36.335Z,95667.50
2022-09-27T22:19:04.909Z,95655.88
2022-09-27T22:21:34.977Z,95656.03
2022-09-27T22:24:07.749Z,95652.84
2022-09-27T22:26:37.782Z,95649.84
2022-09-27T22:29:06.271Z,95660.88
2022-09-27T22:31:36.258Z,95660.75
2022-09-27T22:34:06.006Z,95656.81
2022-09-27T22:36:35.078Z,95640.41
2022-09-27T22:39:03.387Z,95644.34
2022-09-27T22:41:32.185Z,95645.75
2022-09-27T22:44:01.203Z,95643.09
2022-09-27T22:46:29.356Z,95642.00
2022-09-27T22:48:58.740Z,95627.66
2022-09-27T22:51:27.100Z,95633.31
2022-09-27T22:53:55.068Z,95623.53
2022-09-27T22:56:23.039Z,95619.63
2022-09-27T22:58:51.445Z,95620.72
2022-09-27T23:01:20.942Z,95620.41
2022-09-27T23:03:50.107Z,95629.06
2022-09-27T23:06:20.840Z,95622.59
2022-09-27T23:08:49.578Z,95612.53
2022-09-27T23:11:19.768Z,95620.72
2022-09-27T23:13:49.093Z,95625.75
2022-09-27T23:16:20.089Z,95623.38
2022-09-27T23:18:48.685Z,95628.75
2022-09-27T23:21:17.244Z,95627.03
2022-09-27T23:23:47.377Z,95622.28
2022-09-27T23:26:17.331Z,95615.50
2022-09-27T23:28:45.650Z,95619.13
2022-09-27T23:31:15.068Z,95609.34
2022-09-27T23:33:44.954Z,95614.53
2022-09-27T23:36:38.080Z,95611.38
2022-09-27T23:39:07.503Z,95606.81
2022-09-27T23:41:35.444Z,95605.84
2022-09-27T23:44:03.358Z,95612.00
2022-09-27T23:46:31.724Z,95607.72
2022-09-27T23:48:59.785Z,95607.72
2022-09-27T23:51:27.716Z,95612.91
2022-09-27T23:53:57.699Z,95597.31
2022-09-27T23:56:27.270Z,95603.31
2022-09-27T23:58:55.288Z,95596.41
